sensor_id;sensor_type;location;lat;lon;timestamp;P1;durP1;ratioP1;P2;durP2;ratioP2
58360;SDS011;44164;44.954;10.068;2023-02-15T00:00:32;9.50;;;6.88;;
58360;SDS011;44164;44.954;10.068;2023-02-15T00:02:58;8.00;;;6.70;;
58360;SDS011;44164;44.954;10.068;2023-02-15T00:05:24;7.95;;;6.63;;
58360;SDS011;44164;44.954;10.068;2023-02-15T00:07:50;8.63;;;6.72;;
58360;SDS011;44164;44.954;10.068;2023-02-15T00:10:16;7.55;;;6.63;;
58360;SDS011;44164;44.954;10.068;2023-02-15T00:12:43;8.07;;;6.25;;
58360;SDS011;44164;44.954;10.068;2023-02-15T00:15:09;8.18;;;6.40;;
58360;SDS011;44164;44.954;10.068;2023-02-15T00:17:35;9.40;;;7.13;;
58360;SDS011;44164;44.954;10.068;2023-02-15T00:20:01;7.57;;;6.78;;
58360;SDS011;44164;44.954;10.068;2023-02-15T00:22:27;8.88;;;7.20;;
58360;SDS011;44164;44.954;10.068;2023-02-15T00:24:53;7.60;;;6.65;;
58360;SDS011;44164;44.954;10.068;2023-02-15T00:27:19;11.55;;;6.65;;
58360;SDS011;44164;44.954;10.068;2023-02-15T00:29:46;7.85;;;7.03;;
58360;SDS011;44164;44.954;10.068;2023-02-15T00:32:12;9.20;;;7.65;;
58360;SDS011;44164;44.954;10.068;2023-02-15T00:34:39;8.37;;;6.50;;
58360;SDS011;44164;44.954;10.068;2023-02-15T00:37:06;7.53;;;6.43;;
58360;SDS011;44164;44.954;10.068;2023-02-15T00:39:32;8.07;;;6.85;;
58360;SDS011;44164;44.954;10.068;2023-02-15T00:41:58;7.43;;;6.68;;
58360;SDS011;44164;44.954;10.068;2023-02-15T00:44:24;8.90;;;6.97;;
58360;SDS011;44164;44.954;10.068;2023-02-15T00:46:50;7.90;;;6.18;;
58360;SDS011;44164;44.954;10.068;2023-02-15T00:49:16;7.72;;;6.50;;
58360;SDS011;44164;44.954;10.068;2023-02-15T00:51:42;8.90;;;6.35;;
58360;SDS011;44164;44.954;10.068;2023-02-15T00:54:09;7.80;;;7.00;;
58360;SDS011;44164;44.954;10.068;2023-02-15T00:56:35;8.23;;;6.88;;
58360;SDS011;44164;44.954;10.068;2023-02-15T00:59:01;8.52;;;7.40;;
58360;SDS011;44164;44.954;10.068;2023-02-15T01:01:27;9.05;;;7.70;;
58360;SDS011;44164;44.954;10.068;2023-02-15T01:03:53;7.68;;;6.88;;
58360;SDS011;44164;44.954;10.068;2023-02-15T01:06:19;8.10;;;7.28;;
58360;SDS011;44164;44.954;10.068;2023-02-15T01:08:46;9.15;;;7.80;;
58360;SDS011;44164;44.954;10.068;2023-02-15T01:11:14;8.43;;;6.53;;
58360;SDS011;44164;44.954;10.068;2023-02-15T01:13:51;7.68;;;6.57;;
58360;SDS011;44164;44.954;10.068;2023-02-15T01:16:19;8.25;;;6.93;;
58360;SDS011;44164;44.954;10.068;2023-02-15T01:18:45;7.07;;;6.18;;
58360;SDS011;44164;44.954;10.068;2023-02-15T01:21:16;9.90;;;7.35;;
58360;SDS011;44164;44.954;10.068;2023-02-15T01:23:43;9.18;;;7.50;;
58360;SDS011;44164;44.954;10.068;2023-02-15T01:26:12;9.55;;;8.07;;
58360;SDS011;44164;44.954;10.068;2023-02-15T01:28:38;8.88;;;7.68;;
58360;SDS011;44164;44.954;10.068;2023-02-15T01:31:06;8.85;;;6.90;;
58360;SDS011;44164;44.954;10.068;2023-02-15T01:33:33;9.80;;;7.55;;
58360;SDS011;44164;44.954;10.068;2023-02-15T01:36:01;8.23;;;6.97;;
58360;SDS011;44164;44.954;10.068;2023-02-15T01:38:28;9.63;;;7.28;;
58360;SDS011;44164;44.954;10.068;2023-02-15T01:40:54;12.40;;;8.40;;
58360;SDS011;44164;44.954;10.068;2023-02-15T01:43:41;8.23;;;7.35;;
58360;SDS011;44164;44.954;10.068;2023-02-15T01:46:08;8.68;;;7.18;;
58360;SDS011;44164;44.954;10.068;2023-02-15T01:48:35;7.77;;;6.90;;
58360;SDS011;44164;44.954;10.068;2023-02-15T01:51:07;8.68;;;6.97;;
58360;SDS011;44164;44.954;10.068;2023-02-15T01:53:36;7.70;;;6.90;;
58360;SDS011;44164;44.954;10.068;2023-02-15T01:56:11;8.05;;;7.13;;
58360;SDS011;44164;44.954;10.068;2023-02-15T01:58:39;10.05;;;7.90;;
58360;SDS011;44164;44.954;10.068;2023-02-15T02:01:06;8.55;;;7.30;;
58360;SDS011;44164;44.954;10.068;2023-02-15T02:06:25;7.53;;;6.70;;
58360;SDS011;44164;44.954;10.068;2023-02-15T02:08:53;8.77;;;7.20;;
58360;SDS011;44164;44.954;10.068;2023-02-15T02:11:19;9.45;;;7.03;;
58360;SDS011;44164;44.954;10.068;2023-02-15T02:13:46;8.38;;;7.13;;
58360;SDS011;44164;44.954;10.068;2023-02-15T02:16:15;9.27;;;7.68;;
58360;SDS011;44164;44.954;10.068;2023-02-15T02:27:41;10.30;;;8.15;;
58360;SDS011;44164;44.954;10.068;2023-02-15T02:41:30;8.48;;;7.60;;
58360;SDS011;44164;44.954;10.068;2023-02-15T02:46:35;9.25;;;7.75;;
58360;SDS011;44164;44.954;10.068;2023-02-15T02:49:05;8.68;;;7.50;;
58360;SDS011;44164;44.954;10.068;2023-02-15T02:51:31;9.38;;;8.25;;
58360;SDS011;44164;44.954;10.068;2023-02-15T02:53:59;9.25;;;7.93;;
58360;SDS011;44164;44.954;10.068;2023-02-15T02:56:27;9.40;;;7.95;;
58360;SDS011;44164;44.954;10.068;2023-02-15T02:59:00;8.52;;;7.63;;
58360;SDS011;44164;44.954;10.068;2023-02-15T03:01:32;10.43;;;8.90;;
58360;SDS011;44164;44.954;10.068;2023-02-15T03:04:05;11.07;;;8.30;;
58360;SDS011;44164;44.954;10.068;2023-02-15T03:06:40;10.63;;;8.73;;
58360;SDS011;44164;44.954;10.068;2023-02-15T03:09:32;10.90;;;8.25;;
58360;SDS011;44164;44.954;10.068;2023-02-15T03:12:08;10.43;;;7.95;;
58360;SDS011;44164;44.954;10.068;2023-02-15T03:14:41;8.40;;;7.50;;
58360;SDS011;44164;44.954;10.068;2023-02-15T03:17:10;9.45;;;8.13;;
58360;SDS011;44164;44.954;10.068;2023-02-15T03:19:37;9.60;;;7.87;;
58360;SDS011;44164;44.954;10.068;2023-02-15T03:22:06;10.85;;;9.05;;
58360;SDS011;44164;44.954;10.068;2023-02-15T03:24:41;9.35;;;8.00;;
58360;SDS011;44164;44.954;10.068;2023-02-15T03:27:11;9.82;;;8.35;;
58360;SDS011;44164;44.954;10.068;2023-02-15T03:29:46;9.48;;;8.25;;
58360;SDS011;44164;44.954;10.068;2023-02-15T03:32:15;11.18;;;8.30;;
58360;SDS011;44164;44.954;10.068;2023-02-15T03:34:42;9.90;;;8.45;;
58360;SDS011;44164;44.954;10.068;2023-02-15T03:40:10;10.13;;;8.13;;
58360;SDS011;44164;44.954;10.068;2023-02-15T03:43:00;10.68;;;8.40;;
58360;SDS011;44164;44.954;10.068;2023-02-15T03:45:31;9.88;;;8.77;;
58360;SDS011;44164;44.954;10.068;2023-02-15T03:47:58;10.07;;;8.65;;
58360;SDS011;44164;44.954;10.068;2023-02-15T03:50:29;9.68;;;8.05;;
58360;SDS011;44164;44.954;10.068;2023-02-15T03:53:17;10.65;;;8.95;;
58360;SDS011;44164;44.954;10.068;2023-02-15T03:55:46;12.10;;;8.48;;
58360;SDS011;44164;44.954;10.068;2023-02-15T03:58:13;13.32;;;9.35;;
58360;SDS011;44164;44.954;10.068;2023-02-15T04:01:10;12.15;;;8.73;;
58360;SDS011;44164;44.954;10.068;2023-02-15T04:04:02;10.45;;;8.90;;
58360;SDS011;44164;44.954;10.068;2023-02-15T04:06:31;9.05;;;7.82;;
58360;SDS011;44164;44.954;10.068;2023-02-15T04:08:57;10.05;;;8.68;;
58360;SDS011;44164;44.954;10.068;2023-02-15T04:11:42;9.07;;;8.18;;
58360;SDS011;44164;44.954;10.068;2023-02-15T04:14:08;10.07;;;8.40;;
58360;SDS011;44164;44.954;10.068;2023-02-15T04:16:53;9.75;;;8.25;;
58360;SDS011;44164;44.954;10.068;2023-02-15T04:19:19;10.60;;;9.38;;
58360;SDS011;44164;44.954;10.068;2023-02-15T04:22:04;10.70;;;8.00;;
58360;SDS011;44164;44.954;10.068;2023-02-15T04:24:49;10.18;;;8.20;;
58360;SDS011;44164;44.954;10.068;2023-02-15T04:27:33;8.95;;;7.82;;
58360;SDS011;44164;44.954;10.068;2023-02-15T04:29:59;10.48;;;7.47;;
58360;SDS011;44164;44.954;10.068;2023-02-15T04:32:25;10.95;;;8.07;;
58360;SDS011;44164;44.954;10.068;2023-02-15T04:34:52;9.88;;;7.85;;
58360;SDS011;44164;44.954;10.068;2023-02-15T04:37:18;9.20;;;7.80;;
58360;SDS011;44164;44.954;10.068;2023-02-15T04:39:44;10.38;;;8.68;;
58360;SDS011;44164;44.954;10.068;2023-02-15T04:42:11;9.52;;;8.52;;
58360;SDS011;44164;44.954;10.068;2023-02-15T04:44:37;11.73;;;8.65;;
58360;SDS011;44164;44.954;10.068;2023-02-15T04:47:03;11.32;;;8.63;;
58360;SDS011;44164;44.954;10.068;2023-02-15T04:49:29;15.25;;;8.65;;
58360;SDS011;44164;44.954;10.068;2023-02-15T04:51:55;10.45;;;8.10;;
58360;SDS011;44164;44.954;10.068;2023-02-15T04:54:21;10.95;;;8.55;;
58360;SDS011;44164;44.954;10.068;2023-02-15T04:56:47;10.40;;;8.27;;
58360;SDS011;44164;44.954;10.068;2023-02-15T04:59:13;10.57;;;8.35;;
58360;SDS011;44164;44.954;10.068;2023-02-15T05:01:40;8.82;;;7.88;;
58360;SDS011;44164;44.954;10.068;2023-02-15T05:04:06;10.20;;;8.15;;
58360;SDS011;44164;44.954;10.068;2023-02-15T05:06:32;9.52;;;7.85;;
58360;SDS011;44164;44.954;10.068;2023-02-15T05:08:58;10.52;;;8.13;;
58360;SDS011;44164;44.954;10.068;2023-02-15T05:11:25;12.55;;;8.45;;
58360;SDS011;44164;44.954;10.068;2023-02-15T05:13:51;9.23;;;7.85;;
58360;SDS011;44164;44.954;10.068;2023-02-15T05:16:17;9.30;;;7.47;;
58360;SDS011;44164;44.954;10.068;2023-02-15T05:18:43;10.27;;;7.43;;
58360;SDS011;44164;44.954;10.068;2023-02-15T05:21:10;9.15;;;7.60;;
58360;SDS011;44164;44.954;10.068;2023-02-15T05:23:36;10.23;;;7.53;;
58360;SDS011;44164;44.954;10.068;2023-02-15T05:26:02;10.73;;;7.55;;
58360;SDS011;44164;44.954;10.068;2023-02-15T05:28:47;9.75;;;7.50;;
58360;SDS011;44164;44.954;10.068;2023-02-15T05:31:14;13.30;;;8.98;;
58360;SDS011;44164;44.954;10.068;2023-02-15T05:33:41;9.73;;;7.55;;
58360;SDS011;44164;44.954;10.068;2023-02-15T05:36:08;8.15;;;6.93;;
58360;SDS011;44164;44.954;10.068;2023-02-15T05:38:35;11.40;;;9.13;;
58360;SDS011;44164;44.954;10.068;2023-02-15T05:41:04;8.95;;;7.60;;
58360;SDS011;44164;44.954;10.068;2023-02-15T05:43:31;10.65;;;7.93;;
58360;SDS011;44164;44.954;10.068;2023-02-15T05:45:58;9.85;;;7.53;;
58360;SDS011;44164;44.954;10.068;2023-02-15T05:48:24;9.27;;;7.75;;
58360;SDS011;44164;44.954;10.068;2023-02-15T05:51:01;9.30;;;8.07;;
58360;SDS011;44164;44.954;10.068;2023-02-15T05:53:30;9.43;;;7.50;;
58360;SDS011;44164;44.954;10.068;2023-02-15T05:55:57;10.88;;;7.68;;
58360;SDS011;44164;44.954;10.068;2023-02-15T05:58:28;10.82;;;8.35;;
58360;SDS011;44164;44.954;10.068;2023-02-15T06:00:56;8.10;;;6.72;;
58360;SDS011;44164;44.954;10.068;2023-02-15T06:03:22;10.90;;;8.48;;
58360;SDS011;44164;44.954;10.068;2023-02-15T06:05:51;13.25;;;8.00;;
58360;SDS011;44164;44.954;10.068;2023-02-15T06:08:18;12.65;;;7.40;;
58360;SDS011;44164;44.954;10.068;2023-02-15T06:10:47;9.90;;;7.93;;
58360;SDS011;44164;44.954;10.068;2023-02-15T06:13:13;11.23;;;8.73;;
58360;SDS011;44164;44.954;10.068;2023-02-15T06:15:39;10.43;;;8.50;;
58360;SDS011;44164;44.954;10.068;2023-02-15T06:18:05;11.75;;;8.18;;
58360;SDS011;44164;44.954;10.068;2023-02-15T06:20:31;10.18;;;8.23;;
58360;SDS011;44164;44.954;10.068;2023-02-15T06:22:58;11.73;;;8.52;;
58360;SDS011;44164;44.954;10.068;2023-02-15T06:25:24;15.40;;;7.75;;
58360;SDS011;44164;44.954;10.068;2023-02-15T06:27:50;10.52;;;7.55;;
58360;SDS011;44164;44.954;10.068;2023-02-15T06:30:16;10.65;;;7.65;;
58360;SDS011;44164;44.954;10.068;2023-02-15T06:32:42;14.50;;;7.72;;
58360;SDS011;44164;44.954;10.068;2023-02-15T06:35:09;10.88;;;8.10;;
58360;SDS011;44164;44.954;10.068;2023-02-15T06:37:37;9.13;;;7.13;;
58360;SDS011;44164;44.954;10.068;2023-02-15T06:40:03;10.23;;;7.72;;
58360;SDS011;44164;44.954;10.068;2023-02-15T06:42:29;11.50;;;8.88;;
58360;SDS011;44164;44.954;10.068;2023-02-15T06:44:55;11.45;;;8.48;;
58360;SDS011;44164;44.954;10.068;2023-02-15T06:47:22;14.43;;;8.40;;
58360;SDS011;44164;44.954;10.068;2023-02-15T06:49:48;18.08;;;9.57;;
58360;SDS011;44164;44.954;10.068;2023-02-15T06:52:14;12.27;;;9.77;;
58360;SDS011;44164;44.954;10.068;2023-02-15T06:54:40;13.25;;;9.60;;
58360;SDS011;44164;44.954;10.068;2023-02-15T06:57:06;11.40;;;9.55;;
58360;SDS011;44164;44.954;10.068;2023-02-15T06:59:32;14.07;;;8.98;;
58360;SDS011;44164;44.954;10.068;2023-02-15T07:01:58;16.63;;;12.25;;
58360;SDS011;44164;44.954;10.068;2023-02-15T07:04:24;15.77;;;10.00;;
58360;SDS011;44164;44.954;10.068;2023-02-15T07:06:51;12.52;;;9.45;;
58360;SDS011;44164;44.954;10.068;2023-02-15T07:09:17;14.52;;;10.05;;
58360;SDS011;44164;44.954;10.068;2023-02-15T07:11:43;13.95;;;10.38;;
58360;SDS011;44164;44.954;10.068;2023-02-15T07:14:28;15.23;;;10.43;;
58360;SDS011;44164;44.954;10.068;2023-02-15T07:16:54;12.63;;;9.23;;
58360;SDS011;44164;44.954;10.068;2023-02-15T07:19:20;14.43;;;10.68;;
58360;SDS011;44164;44.954;10.068;2023-02-15T07:21:46;19.17;;;9.02;;
58360;SDS011;44164;44.954;10.068;2023-02-15T07:24:12;13.82;;;9.52;;
58360;SDS011;44164;44.954;10.068;2023-02-15T07:26:39;14.30;;;8.52;;
58360;SDS011;44164;44.954;10.068;2023-02-15T07:29:05;9.50;;;7.78;;
58360;SDS011;44164;44.954;10.068;2023-02-15T07:31:31;11.70;;;8.65;;
58360;SDS011;44164;44.954;10.068;2023-02-15T07:33:58;10.60;;;8.48;;
58360;SDS011;44164;44.954;10.068;2023-02-15T07:36:24;15.25;;;8.55;;
58360;SDS011;44164;44.954;10.068;2023-02-15T07:38:50;11.48;;;7.22;;
58360;SDS011;44164;44.954;10.068;2023-02-15T07:41:16;12.32;;;7.13;;
58360;SDS011;44164;44.954;10.068;2023-02-15T07:43:43;9.93;;;7.25;;
58360;SDS011;44164;44.954;10.068;2023-02-15T07:46:11;12.43;;;8.30;;
58360;SDS011;44164;44.954;10.068;2023-02-15T07:48:39;10.13;;;6.85;;
58360;SDS011;44164;44.954;10.068;2023-02-15T07:51:06;10.93;;;7.70;;
58360;SDS011;44164;44.954;10.068;2023-02-15T07:53:33;12.45;;;7.20;;
58360;SDS011;44164;44.954;10.068;2023-02-15T07:56:00;11.68;;;6.63;;
58360;SDS011;44164;44.954;10.068;2023-02-15T07:58:27;8.88;;;6.75;;
58360;SDS011;44164;44.954;10.068;2023-02-15T08:01:13;10.25;;;6.72;;
58360;SDS011;44164;44.954;10.068;2023-02-15T08:03:39;8.95;;;6.63;;
58360;SDS011;44164;44.954;10.068;2023-02-15T08:06:06;9.00;;;6.55;;
58360;SDS011;44164;44.954;10.068;2023-02-15T08:08:35;13.90;;;6.85;;
58360;SDS011;44164;44.954;10.068;2023-02-15T08:11:04;8.95;;;6.95;;
58360;SDS011;44164;44.954;10.068;2023-02-15T08:13:52;7.95;;;6.60;;
58360;SDS011;44164;44.954;10.068;2023-02-15T08:19:00;9.88;;;6.90;;
58360;SDS011;44164;44.954;10.068;2023-02-15T08:21:30;12.55;;;7.22;;
58360;SDS011;44164;44.954;10.068;2023-02-15T08:23:57;8.55;;;6.25;;
58360;SDS011;44164;44.954;10.068;2023-02-15T08:26:24;9.52;;;6.57;;
58360;SDS011;44164;44.954;10.068;2023-02-15T08:28:50;9.07;;;7.00;;
58360;SDS011;44164;44.954;10.068;2023-02-15T08:31:17;10.70;;;6.63;;
58360;SDS011;44164;44.954;10.068;2023-02-15T08:33:43;9.57;;;6.13;;
58360;SDS011;44164;44.954;10.068;2023-02-15T08:36:12;9.70;;;7.40;;
58360;SDS011;44164;44.954;10.068;2023-02-15T08:38:39;10.35;;;6.68;;
58360;SDS011;44164;44.954;10.068;2023-02-15T08:41:13;10.77;;;6.47;;
58360;SDS011;44164;44.954;10.068;2023-02-15T08:43:39;6.88;;;6.07;;
58360;SDS011;44164;44.954;10.068;2023-02-15T08:46:06;8.57;;;6.55;;
58360;SDS011;44164;44.954;10.068;2023-02-15T08:48:33;8.60;;;6.30;;
58360;SDS011;44164;44.954;10.068;2023-02-15T08:51:03;7.93;;;6.05;;
58360;SDS011;44164;44.954;10.068;2023-02-15T08:53:33;10.05;;;6.65;;
58360;SDS011;44164;44.954;10.068;2023-02-15T08:55:59;9.82;;;6.05;;
58360;SDS011;44164;44.954;10.068;2023-02-15T08:58:25;10.50;;;6.63;;
58360;SDS011;44164;44.954;10.068;2023-02-15T09:00:54;7.40;;;6.15;;
58360;SDS011;44164;44.954;10.068;2023-02-15T09:03:20;7.55;;;5.78;;
58360;SDS011;44164;44.954;10.068;2023-02-15T09:05:46;8.07;;;6.15;;
58360;SDS011;44164;44.954;10.068;2023-02-15T09:08:12;12.07;;;6.13;;
58360;SDS011;44164;44.954;10.068;2023-02-15T09:10:38;6.90;;;5.03;;
58360;SDS011;44164;44.954;10.068;2023-02-15T09:13:04;6.97;;;5.75;;
58360;SDS011;44164;44.954;10.068;2023-02-15T09:15:30;8.57;;;6.60;;
58360;SDS011;44164;44.954;10.068;2023-02-15T09:17:56;8.18;;;6.05;;
58360;SDS011;44164;44.954;10.068;2023-02-15T09:20:24;9.10;;;5.95;;
58360;SDS011;44164;44.954;10.068;2023-02-15T09:22:51;8.02;;;5.60;;
58360;SDS011;44164;44.954;10.068;2023-02-15T09:25:18;8.40;;;6.05;;
58360;SDS011;44164;44.954;10.068;2023-02-15T09:27:45;9.50;;;5.90;;
58360;SDS011;44164;44.954;10.068;2023-02-15T09:30:11;7.63;;;6.07;;
58360;SDS011;44164;44.954;10.068;2023-02-15T09:32:38;7.32;;;5.55;;
58360;SDS011;44164;44.954;10.068;2023-02-15T09:35:04;7.30;;;5.30;;
58360;SDS011;44164;44.954;10.068;2023-02-15T09:37:30;9.27;;;5.75;;
58360;SDS011;44164;44.954;10.068;2023-02-15T09:39:57;9.45;;;5.72;;
58360;SDS011;44164;44.954;10.068;2023-02-15T09:42:30;8.27;;;5.95;;
58360;SDS011;44164;44.954;10.068;2023-02-15T09:45:37;7.13;;;5.05;;
58360;SDS011;44164;44.954;10.068;2023-02-15T09:48:43;8.02;;;5.43;;
58360;SDS011;44164;44.954;10.068;2023-02-15T09:51:17;6.55;;;5.65;;
58360;SDS011;44164;44.954;10.068;2023-02-15T09:53:59;8.38;;;6.40;;
58360;SDS011;44164;44.954;10.068;2023-02-15T10:02:15;9.23;;;6.85;;
58360;SDS011;44164;44.954;10.068;2023-02-15T10:07:37;11.70;;;6.50;;
58360;SDS011;44164;44.954;10.068;2023-02-15T10:13:18;7.97;;;5.13;;
58360;SDS011;44164;44.954;10.068;2023-02-15T10:19:15;8.93;;;6.40;;
58360;SDS011;44164;44.954;10.068;2023-02-15T10:21:59;7.00;;;5.28;;
58360;SDS011;44164;44.954;10.068;2023-02-15T10:27:11;6.63;;;5.30;;
58360;SDS011;44164;44.954;10.068;2023-02-15T10:29:41;9.93;;;5.95;;
58360;SDS011;44164;44.954;10.068;2023-02-15T10:34:53;7.40;;;5.68;;
58360;SDS011;44164;44.954;10.068;2023-02-15T10:40:22;8.15;;;5.70;;
58360;SDS011;44164;44.954;10.068;2023-02-15T10:45:25;7.75;;;5.95;;
58360;SDS011;44164;44.954;10.068;2023-02-15T10:48:14;10.10;;;6.03;;
58360;SDS011;44164;44.954;10.068;2023-02-15T11:06:52;6.97;;;5.22;;
58360;SDS011;44164;44.954;10.068;2023-02-15T11:09:21;8.07;;;5.53;;
58360;SDS011;44164;44.954;10.068;2023-02-15T11:11:49;7.10;;;5.32;;
58360;SDS011;44164;44.954;10.068;2023-02-15T11:14:18;7.25;;;5.70;;
58360;SDS011;44164;44.954;10.068;2023-02-15T11:16:50;7.95;;;5.80;;
58360;SDS011;44164;44.954;10.068;2023-02-15T11:19:22;7.97;;;4.88;;
58360;SDS011;44164;44.954;10.068;2023-02-15T11:21:50;8.10;;;5.85;;
58360;SDS011;44164;44.954;10.068;2023-02-15T11:24:20;7.53;;;5.18;;
58360;SDS011;44164;44.954;10.068;2023-02-15T11:26:53;7.32;;;5.40;;
58360;SDS011;44164;44.954;10.068;2023-02-15T11:37:33;6.72;;;5.03;;
58360;SDS011;44164;44.954;10.068;2023-02-15T11:40:02;8.82;;;5.47;;
58360;SDS011;44164;44.954;10.068;2023-02-15T11:42:38;7.45;;;4.82;;
58360;SDS011;44164;44.954;10.068;2023-02-15T11:45:07;6.53;;;4.88;;
58360;SDS011;44164;44.954;10.068;2023-02-15T11:47:45;6.57;;;4.85;;
58360;SDS011;44164;44.954;10.068;2023-02-15T11:50:14;7.03;;;5.13;;
58360;SDS011;44164;44.954;10.068;2023-02-15T11:52:42;8.20;;;5.07;;
58360;SDS011;44164;44.954;10.068;2023-02-15T11:55:12;7.93;;;5.10;;
58360;SDS011;44164;44.954;10.068;2023-02-15T11:57:41;5.60;;;4.30;;
58360;SDS011;44164;44.954;10.068;2023-02-15T12:00:14;9.10;;;4.70;;
58360;SDS011;44164;44.954;10.068;2023-02-15T12:02:46;7.35;;;5.45;;
58360;SDS011;44164;44.954;10.068;2023-02-15T12:05:18;7.82;;;4.53;;
58360;SDS011;44164;44.954;10.068;2023-02-15T12:08:00;7.18;;;5.00;;
58360;SDS011;44164;44.954;10.068;2023-02-15T12:10:30;6.80;;;4.85;;
58360;SDS011;44164;44.954;10.068;2023-02-15T12:15:46;6.53;;;4.45;;
58360;SDS011;44164;44.954;10.068;2023-02-15T12:20:49;5.25;;;4.10;;
58360;SDS011;44164;44.954;10.068;2023-02-15T12:23:16;8.32;;;4.82;;
58360;SDS011;44164;44.954;10.068;2023-02-15T12:25:50;6.13;;;4.85;;
58360;SDS011;44164;44.954;10.068;2023-02-15T12:30:57;6.55;;;4.68;;
58360;SDS011;44164;44.954;10.068;2023-02-15T12:33:29;5.80;;;4.50;;
58360;SDS011;44164;44.954;10.068;2023-02-15T12:35:57;5.55;;;4.28;;
58360;SDS011;44164;44.954;10.068;2023-02-15T12:41:29;7.22;;;5.15;;
58360;SDS011;44164;44.954;10.068;2023-02-15T12:46:32;4.97;;;4.13;;
58360;SDS011;44164;44.954;10.068;2023-02-15T12:49:04;5.93;;;5.05;;
58360;SDS011;44164;44.954;10.068;2023-02-15T12:51:53;5.03;;;4.00;;
58360;SDS011;44164;44.954;10.068;2023-02-15T12:56:48;6.45;;;4.70;;
58360;SDS011;44164;44.954;10.068;2023-02-15T12:59:14;6.18;;;4.45;;
58360;SDS011;44164;44.954;10.068;2023-02-15T13:01:46;5.32;;;4.10;;
58360;SDS011;44164;44.954;10.068;2023-02-15T13:04:25;7.82;;;5.47;;
58360;SDS011;44164;44.954;10.068;2023-02-15T13:06:56;7.18;;;4.70;;
58360;SDS011;44164;44.954;10.068;2023-02-15T13:14:49;4.55;;;3.92;;
58360;SDS011;44164;44.954;10.068;2023-02-15T13:17:17;6.85;;;4.85;;
58360;SDS011;44164;44.954;10.068;2023-02-15T13:19:50;5.18;;;4.00;;
58360;SDS011;44164;44.954;10.068;2023-02-15T13:25:21;7.88;;;5.10;;
58360;SDS011;44164;44.954;10.068;2023-02-15T13:27:50;6.13;;;4.50;;
58360;SDS011;44164;44.954;10.068;2023-02-15T13:30:22;7.13;;;4.75;;
58360;SDS011;44164;44.954;10.068;2023-02-15T13:33:05;8.05;;;4.70;;
58360;SDS011;44164;44.954;10.068;2023-02-15T13:35:38;8.55;;;4.45;;
58360;SDS011;44164;44.954;10.068;2023-02-15T13:38:42;5.63;;;4.55;;
58360;SDS011;44164;44.954;10.068;2023-02-15T13:41:09;7.82;;;4.60;;
58360;SDS011;44164;44.954;10.068;2023-02-15T13:43:58;6.47;;;4.50;;
58360;SDS011;44164;44.954;10.068;2023-02-15T13:57:48;6.03;;;4.47;;
58360;SDS011;44164;44.954;10.068;2023-02-15T14:08:33;5.00;;;4.28;;
58360;SDS011;44164;44.954;10.068;2023-02-15T14:14:39;5.97;;;4.50;;
58360;SDS011;44164;44.954;10.068;2023-02-15T14:17:18;6.13;;;4.57;;
58360;SDS011;44164;44.954;10.068;2023-02-15T14:20:14;5.25;;;4.15;;
58360;SDS011;44164;44.954;10.068;2023-02-15T14:22:48;7.78;;;4.65;;
58360;SDS011;44164;44.954;10.068;2023-02-15T14:25:38;5.75;;;4.18;;
58360;SDS011;44164;44.954;10.068;2023-02-15T14:28:09;6.50;;;4.78;;
58360;SDS011;44164;44.954;10.068;2023-02-15T14:30:39;7.90;;;4.70;;
58360;SDS011;44164;44.954;10.068;2023-02-15T14:33:14;7.85;;;4.70;;
58360;SDS011;44164;44.954;10.068;2023-02-15T14:35:47;6.97;;;4.18;;
58360;SDS011;44164;44.954;10.068;2023-02-15T14:42:04;5.95;;;4.22;;
58360;SDS011;44164;44.954;10.068;2023-02-15T14:49:33;5.45;;;4.28;;
58360;SDS011;44164;44.954;10.068;2023-02-15T14:52:05;5.93;;;3.95;;
58360;SDS011;44164;44.954;10.068;2023-02-15T14:59:27;5.60;;;4.55;;
58360;SDS011;44164;44.954;10.068;2023-02-15T15:04:37;7.10;;;4.45;;
58360;SDS011;44164;44.954;10.068;2023-02-15T15:09:39;5.60;;;4.18;;
58360;SDS011;44164;44.954;10.068;2023-02-15T15:12:13;5.88;;;4.20;;
58360;SDS011;44164;44.954;10.068;2023-02-15T15:14:42;5.63;;;4.07;;
58360;SDS011;44164;44.954;10.068;2023-02-15T15:17:10;5.28;;;4.22;;
58360;SDS011;44164;44.954;10.068;2023-02-15T15:22:19;6.85;;;4.72;;
58360;SDS011;44164;44.954;10.068;2023-02-15T15:32:45;6.40;;;4.47;;
58360;SDS011;44164;44.954;10.068;2023-02-15T15:35:35;8.30;;;4.55;;
58360;SDS011;44164;44.954;10.068;2023-02-15T15:49:35;6.65;;;4.30;;
58360;SDS011;44164;44.954;10.068;2023-02-15T15:52:08;6.93;;;5.03;;
58360;SDS011;44164;44.954;10.068;2023-02-15T15:54:39;5.90;;;4.20;;
58360;SDS011;44164;44.954;10.068;2023-02-15T15:57:06;6.53;;;5.03;;
58360;SDS011;44164;44.954;10.068;2023-02-15T16:02:56;6.75;;;4.07;;
58360;SDS011;44164;44.954;10.068;2023-02-15T16:05:22;5.72;;;4.18;;
58360;SDS011;44164;44.954;10.068;2023-02-15T16:07:49;9.60;;;4.03;;
58360;SDS011;44164;44.954;10.068;2023-02-15T16:10:22;5.38;;;3.70;;
58360;SDS011;44164;44.954;10.068;2023-02-15T16:12:49;6.70;;;4.25;;
58360;SDS011;44164;44.954;10.068;2023-02-15T16:15:20;8.00;;;4.28;;
58360;SDS011;44164;44.954;10.068;2023-02-15T16:17:51;6.10;;;4.40;;
58360;SDS011;44164;44.954;10.068;2023-02-15T16:20:26;5.00;;;4.05;;
58360;SDS011;44164;44.954;10.068;2023-02-15T16:23:12;6.53;;;3.65;;
58360;SDS011;44164;44.954;10.068;2023-02-15T16:28:33;5.40;;;4.13;;
58360;SDS011;44164;44.954;10.068;2023-02-15T16:31:07;4.80;;;4.10;;
58360;SDS011;44164;44.954;10.068;2023-02-15T16:33:38;5.13;;;3.97;;
58360;SDS011;44164;44.954;10.068;2023-02-15T16:36:09;6.68;;;4.43;;
58360;SDS011;44164;44.954;10.068;2023-02-15T16:41:12;5.50;;;4.25;;
58360;SDS011;44164;44.954;10.068;2023-02-15T16:43:40;6.20;;;4.95;;
58360;SDS011;44164;44.954;10.068;2023-02-15T16:46:10;8.03;;;4.47;;
58360;SDS011;44164;44.954;10.068;2023-02-15T16:48:41;6.90;;;4.20;;
58360;SDS011;44164;44.954;10.068;2023-02-15T16:51:09;7.75;;;4.38;;
58360;SDS011;44164;44.954;10.068;2023-02-15T16:53:35;7.57;;;4.00;;
58360;SDS011;44164;44.954;10.068;2023-02-15T16:56:04;6.27;;;4.17;;
58360;SDS011;44164;44.954;10.068;2023-02-15T17:01:03;8.65;;;5.13;;
58360;SDS011;44164;44.954;10.068;2023-02-15T17:03:32;7.05;;;4.50;;
58360;SDS011;44164;44.954;10.068;2023-02-15T17:05:59;6.53;;;4.20;;
58360;SDS011;44164;44.954;10.068;2023-02-15T17:08:33;6.43;;;4.32;;
58360;SDS011;44164;44.954;10.068;2023-02-15T17:11:12;7.18;;;4.20;;
58360;SDS011;44164;44.954;10.068;2023-02-15T17:16:49;6.82;;;4.88;;
58360;SDS011;44164;44.954;10.068;2023-02-15T17:19:28;7.10;;;5.03;;
58360;SDS011;44164;44.954;10.068;2023-02-15T17:26:56;8.80;;;5.90;;
58360;SDS011;44164;44.954;10.068;2023-02-15T17:29:33;7.38;;;4.88;;
58360;SDS011;44164;44.954;10.068;2023-02-15T17:32:01;8.25;;;5.07;;
58360;SDS011;44164;44.954;10.068;2023-02-15T17:34:49;8.00;;;4.75;;
58360;SDS011;44164;44.954;10.068;2023-02-15T17:39:52;6.88;;;4.85;;
58360;SDS011;44164;44.954;10.068;2023-02-15T17:42:18;6.35;;;4.50;;
58360;SDS011;44164;44.954;10.068;2023-02-15T17:44:44;7.88;;;5.30;;
58360;SDS011;44164;44.954;10.068;2023-02-15T17:47:13;7.35;;;4.90;;
58360;SDS011;44164;44.954;10.068;2023-02-15T17:49:41;5.90;;;4.35;;
58360;SDS011;44164;44.954;10.068;2023-02-15T17:52:13;8.20;;;4.60;;
58360;SDS011;44164;44.954;10.068;2023-02-15T17:54:40;8.60;;;5.13;;
58360;SDS011;44164;44.954;10.068;2023-02-15T17:57:26;6.88;;;5.05;;
58360;SDS011;44164;44.954;10.068;2023-02-15T17:59:53;8.77;;;4.80;;